createdAt,value
2023-04-06T00:00:37.810Z,23.26
2023-04-06T00:01:37.848Z,23.25
2023-04-06T00:02:37.896Z,23.26
2023-04-06T00:03:37.961Z,23.25
2023-04-06T00:04:37.937Z,23.25
2023-04-06T00:05:37.959Z,23.25
2023-04-06T00:06:37.983Z,23.25
2023-04-06T00:07:38.010Z,23.25
2023-04-06T00:08:38.045Z,23.25
2023-04-06T00:09:38.076Z,23.25
2023-04-06T00:10:38.081Z,23.25
2023-04-06T00:11:38.128Z,23.24
2023-04-06T00:12:38.136Z,23.24
2023-04-06T00:13:38.213Z,23.24
2023-04-06T00:14:38.209Z,23.24
2023-04-06T00:15:38.273Z,23.25
2023-04-06T00:16:38.395Z,23.24
2023-04-06T00:17:38.333Z,23.24
2023-04-06T00:18:38.314Z,23.24
2023-04-06T00:19:38.391Z,23.24
2023-04-06T00:20:38.403Z,23.24
2023-04-06T00:21:38.488Z,23.24
2023-04-06T00:22:38.470Z,23.23
2023-04-06T00:23:38.504Z,23.24
2023-04-06T00:24:38.492Z,23.24
2023-04-06T00:25:38.544Z,23.23
2023-04-06T00:26:38.574Z,23.23
2023-04-06T00:27:38.615Z,23.23
2023-04-06T00:28:38.635Z,23.23
2023-04-06T00:29:38.661Z,23.24
2023-04-06T00:30:38.666Z,23.23
2023-04-06T00:31:38.714Z,23.23
2023-04-06T00:32:38.785Z,23.22
2023-04-06T00:33:38.746Z,23.23
2023-04-06T00:34:38.753Z,23.23
2023-04-06T00:35:38.820Z,23.23
2023-04-06T00:36:38.833Z,23.23
2023-04-06T00:37:38.876Z,23.23
2023-04-06T00:38:38.881Z,23.23
2023-04-06T00:39:38.947Z,23.22
2023-04-06T00:40:38.959Z,23.23
2023-04-06T00:41:38.965Z,23.22
2023-04-06T00:42:39.017Z,23.22
2023-04-06T00:43:39.067Z,23.22
2023-04-06T00:44:39.086Z,23.23
2023-04-06T00:45:39.061Z,23.22
2023-04-06T00:46:39.092Z,23.22
2023-04-06T00:47:39.240Z,23.21
2023-04-06T00:48:39.158Z,23.22
2023-04-06T00:49:39.197Z,23.21
2023-04-06T00:50:39.226Z,23.21
2023-04-06T00:51:39.223Z,23.22
2023-04-06T00:52:39.238Z,23.21
2023-04-06T00:53:39.250Z,23.22
2023-04-06T00:54:39.305Z,23.22
2023-04-06T00:55:39.325Z,23.21
2023-04-06T00:56:39.350Z,23.21
2023-04-06T00:57:39.422Z,23.21
2023-04-06T00:58:39.395Z,23.21
2023-04-06T00:59:39.510Z,23.21
2023-04-06T01:00:39.472Z,23.21
2023-04-06T01:01:39.590Z,23.21
2023-04-06T01:02:39.597Z,23.21
2023-04-06T01:03:39.540Z,23.21
2023-04-06T01:04:39.585Z,23.20
2023-04-06T01:05:39.634Z,23.20
2023-04-06T01:06:39.705Z,23.20
2023-04-06T01:07:39.700Z,23.20
2023-04-06T01:08:39.717Z,23.19
2023-04-06T01:09:39.739Z,23.20
2023-04-06T01:10:39.792Z,23.20
2023-04-06T01:11:39.831Z,23.20
2023-04-06T01:12:39.867Z,23.19
2023-04-06T01:13:39.870Z,23.19
2023-04-06T01:14:39.882Z,23.19
2023-04-06T01:15:39.961Z,23.19
2023-04-06T01:16:40.020Z,23.19
2023-04-06T01:17:40.127Z,23.19
2023-04-06T01:18:40.102Z,23.19
2023-04-06T01:19:40.092Z,23.19
2023-04-06T01:20:40.099Z,23.18
2023-04-06T01:21:40.145Z,23.19
2023-04-06T01:22:40.228Z,23.18
2023-04-06T01:23:40.226Z,23.18
2023-04-06T01:24:40.282Z,23.18
2023-04-06T01:25:40.276Z,23.18
2023-04-06T01:26:40.286Z,23.18
2023-04-06T01:27:40.347Z,23.18
2023-04-06T01:28:40.350Z,23.18
2023-04-06T01:29:40.402Z,23.18
2023-04-06T01:30:40.467Z,23.17
2023-04-06T01:31:40.523Z,23.17
2023-04-06T01:32:40.553Z,23.18
2023-04-06T01:33:40.509Z,23.18
2023-04-06T01:34:40.544Z,23.18
2023-04-06T01:35:40.719Z,23.17
2023-04-06T01:36:40.625Z,23.17
2023-04-06T01:37:40.647Z,23.17
2023-04-06T01:38:40.675Z,23.17
2023-04-06T01:39:40.747Z,23.17
2023-04-06T01:40:40.847Z,23.16
2023-04-06T01:41:40.865Z,23.16
2023-04-06T01:42:40.865Z,23.16
2023-04-06T01:43:40.918Z,23.16
2023-04-06T01:44:40.906Z,23.17
2023-04-06T01:45:40.993Z,23.16
2023-04-06T01:46:41.050Z,23.16
2023-04-06T01:47:41.136Z,23.16
2023-04-06T01:48:41.128Z,23.16
2023-04-06T01:49:41.103Z,23.16
2023-04-06T01:50:41.173Z,23.16
2023-04-06T01:51:41.234Z,23.15
2023-04-06T01:52:41.254Z,23.16
2023-04-06T01:53:41.295Z,23.16
2023-04-06T01:54:41.362Z,23.15
2023-04-06T01:55:41.367Z,23.16
2023-04-06T01:56:41.398Z,23.16
2023-04-06T01:57:41.441Z,23.15
2023-04-06T01:58:41.492Z,23.15
2023-04-06T01:59:41.617Z,23.15
2023-04-06T02:00:41.636Z,23.15
2023-04-06T02:01:41.623Z,23.15
2023-04-06T02:02:48.268Z,23.15
2023-04-06T02:03:41.676Z,23.15
2023-04-06T02:04:41.667Z,23.15
2023-04-06T02:05:41.689Z,23.15
2023-04-06T02:06:41.630Z,23.15
2023-04-06T02:07:41.652Z,23.14
2023-04-06T02:08:41.650Z,23.15
2023-04-06T02:09:41.666Z,23.15
2023-04-06T02:10:41.598Z,23.14
2023-04-06T02:11:41.618Z,23.15
2023-04-06T02:12:41.619Z,23.15
2023-04-06T02:13:41.581Z,23.15
2023-04-06T02:14:41.556Z,23.14
2023-04-06T02:15:41.555Z,23.14
2023-04-06T02:16:41.642Z,23.14
2023-04-06T02:17:41.604Z,23.13
2023-04-06T02:18:41.578Z,23.14
2023-04-06T02:19:41.558Z,23.14
2023-04-06T02:20:41.529Z,23.14
2023-04-06T02:21:41.538Z,23.14
2023-04-06T02:22:41.569Z,23.14
2023-04-06T02:23:41.506Z,23.14
2023-04-06T02:24:41.513Z,23.15
2023-04-06T02:25:41.509Z,23.15
2023-04-06T02:26:41.514Z,23.13
2023-04-06T02:27:41.524Z,23.13
2023-04-06T02:28:41.485Z,23.13
2023-04-06T02:29:41.495Z,23.13
2023-04-06T02:30:41.502Z,23.14
2023-04-06T02:31:41.501Z,23.13
2023-04-06T02:32:41.488Z,23.13
2023-04-06T02:33:41.444Z,23.13
2023-04-06T02:34:41.424Z,23.13
2023-04-06T02:35:41.393Z,23.14
2023-04-06T02:36:41.377Z,23.12
2023-04-06T02:37:41.456Z,23.13
2023-04-06T02:38:41.372Z,23.12
2023-04-06T02:39:41.409Z,23.13
2023-04-06T02:40:41.363Z,23.13
2023-04-06T02:41:41.363Z,23.12
2023-04-06T02:42:41.360Z,23.12
2023-04-06T02:43:41.328Z,23.12
2023-04-06T02:44:41.335Z,23.12
2023-04-06T02:45:41.445Z,23.12
2023-04-06T02:46:41.350Z,23.12
2023-04-06T02:47:41.503Z,23.12
2023-04-06T02:48:41.472Z,23.12
2023-04-06T02:49:41.533Z,23.12
2023-04-06T02:50:48.310Z,23.12
2023-04-06T02:51:41.536Z,23.10
2023-04-06T02:52:41.474Z,23.11
2023-04-06T02:53:41.505Z,23.11
2023-04-06T02:54:41.509Z,23.11
2023-04-06T02:55:41.493Z,23.10
2023-04-06T02:56:41.503Z,23.11
2023-04-06T02:57:41.483Z,23.11
2023-04-06T02:58:41.481Z,23.10
2023-04-06T02:59:41.579Z,23.11
2023-04-06T03:00:41.450Z,23.10
2023-04-06T03:01:41.498Z,23.10
2023-04-06T03:02:41.499Z,23.11
2023-04-06T03:03:41.570Z,23.11
2023-04-06T03:04:41.407Z,23.10
2023-04-06T03:05:41.446Z,23.10
2023-04-06T03:06:41.372Z,23.10
2023-04-06T03:07:41.401Z,23.11
2023-04-06T03:08:41.349Z,23.10
2023-04-06T03:09:41.380Z,23.10
2023-04-06T03:10:41.388Z,23.09
2023-04-06T03:11:41.372Z,23.09
2023-04-06T03:12:41.385Z,23.10
2023-04-06T03:13:41.373Z,23.09
2023-04-06T03:14:41.328Z,23.09
2023-04-06T03:15:41.374Z,23.10
2023-04-06T03:16:41.355Z,23.09
2023-04-06T03:17:41.339Z,23.09
2023-04-06T03:18:41.320Z,23.09
2023-04-06T03:19:41.292Z,23.08
2023-04-06T03:20:41.274Z,23.09
2023-04-06T03:21:41.313Z,23.09
2023-04-06T03:22:41.262Z,23.09
2023-04-06T03:23:41.261Z,23.09
2023-04-06T03:24:41.250Z,23.09
2023-04-06T03:25:41.263Z,23.09
2023-04-06T03:26:41.247Z,23.09
2023-04-06T03:27:41.266Z,23.08
2023-04-06T03:28:41.222Z,23.09
2023-04-06T03:29:41.310Z,23.08
2023-04-06T03:30:41.303Z,23.08
2023-04-06T03:31:41.402Z,23.08
2023-04-06T03:32:41.417Z,23.08
2023-04-06T03:33:41.403Z,23.08
2023-04-06T03:34:41.476Z,23.08
2023-04-06T03:35:41.537Z,23.08
2023-04-06T03:36:41.554Z,23.08
2023-04-06T03:37:41.570Z,23.08
2023-04-06T03:38:41.637Z,23.08
2023-04-06T03:39:41.607Z,23.08
2023-04-06T03:40:41.669Z,23.08
2023-04-06T03:41:41.694Z,23.08
2023-04-06T03:42:41.765Z,23.08
2023-04-06T03:43:41.760Z,23.08
2023-04-06T03:44:41.768Z,23.08
2023-04-06T03:45:41.837Z,23.08
2023-04-06T03:46:41.923Z,23.08
2023-04-06T03:47:41.928Z,23.08
2023-04-06T03:48:41.886Z,23.08
2023-04-06T03:49:41.938Z,23.08
2023-04-06T03:50:41.951Z,23.08
2023-04-06T03:51:41.997Z,23.08
2023-04-06T03:52:42.034Z,23.08
2023-04-06T03:53:42.071Z,23.07
2023-04-06T03:54:42.081Z,23.07
2023-04-06T03:55:42.080Z,23.08
2023-04-06T03:56:42.133Z,23.07
2023-04-06T03:57:42.157Z,23.08
2023-04-06T03:58:42.214Z,23.07
2023-04-06T03:59:42.362Z,23.07
2023-04-06T04:00:42.246Z,23.07
2023-04-06T04:01:42.336Z,23.07
2023-04-06T04:02:42.423Z,23.07
2023-04-06T04:03:42.479Z,23.07
2023-04-06T04:04:42.418Z,23.07
2023-04-06T04:05:42.429Z,23.07
2023-04-06T04:06:42.476Z,23.07
2023-04-06T04:07:42.469Z,23.06
2023-04-06T04:08:42.543Z,23.05
2023-04-06T04:09:42.562Z,23.06
2023-04-06T04:10:42.591Z,23.05
2023-04-06T04:11:42.641Z,23.05
2023-04-06T04:12:42.643Z,23.04
2023-04-06T04:13:42.674Z,23.04
2023-04-06T04:14:42.730Z,23.03
2023-04-06T04:15:42.732Z,23.04
2023-04-06T04:16:42.831Z,23.03
2023-04-06T04:17:44.275Z,23.02
2023-04-06T04:18:42.823Z,23.02
2023-04-06T04:19:42.880Z,23.01
2023-04-06T04:20:42.937Z,23.01
2023-04-06T04:21:42.937Z,23.01
2023-04-06T04:22:42.977Z,23.00
2023-04-06T04:23:42.988Z,23.00
2023-04-06T04:24:43.027Z,23.00
2023-04-06T04:25:43.128Z,22.99
2023-04-06T04:26:43.108Z,22.99
2023-04-06T04:27:43.156Z,22.98
2023-04-06T04:28:43.148Z,22.99
2023-04-06T04:29:43.238Z,22.99
2023-04-06T04:30:43.253Z,22.98
2023-04-06T04:31:43.341Z,22.98
2023-04-06T04:32:43.353Z,22.98
2023-04-06T04:33:43.477Z,22.98
2023-04-06T04:34:43.388Z,22.97
2023-04-06T04:35:43.466Z,22.99
2023-04-06T04:36:43.457Z,22.99
2023-04-06T04:37:43.465Z,22.98
2023-04-06T04:38:43.503Z,22.98
2023-04-06T04:39:43.513Z,22.99
2023-04-06T04:40:43.585Z,22.99
2023-04-06T04:41:43.647Z,22.99
2023-04-06T04:42:43.655Z,22.99
2023-04-06T04:43:43.713Z,22.99
2023-04-06T04:44:43.702Z,23.00
2023-04-06T04:45:43.811Z,23.00
2023-04-06T04:46:43.791Z,23.00
2023-04-06T04:47:43.881Z,22.99
2023-04-06T04:48:43.843Z,23.00
2023-04-06T04:49:43.902Z,23.00
2023-04-06T04:50:43.900Z,22.99
2023-04-06T04:51:43.972Z,23.01
2023-04-06T04:52:43.968Z,23.00
2023-04-06T04:53:44.026Z,23.01
2023-04-06T04:54:44.101Z,23.01
2023-04-06T04:55:44.148Z,23.01
2023-04-06T04:56:44.136Z,23.00
2023-04-06T04:57:44.174Z,23.00
2023-04-06T04:58:44.174Z,23.00
2023-04-06T04:59:44.255Z,23.00
2023-04-06T05:00:44.284Z,23.00
2023-04-06T05:01:54.745Z,23.00
2023-04-06T05:02:45.362Z,22.99
2023-04-06T05:03:44.302Z,22.99
2023-04-06T05:04:44.276Z,22.99
2023-04-06T05:05:44.279Z,22.99
2023-04-06T05:06:44.284Z,23.00
2023-04-06T05:07:44.256Z,23.01
2023-04-06T05:08:44.201Z,22.99
2023-04-06T05:09:44.194Z,22.99
2023-04-06T05:10:44.195Z,23.00
2023-04-06T05:11:44.214Z,23.00
2023-04-06T05:12:44.219Z,23.00
2023-04-06T05:13:44.142Z,23.00
2023-04-06T05:14:44.190Z,23.00
2023-04-06T05:15:44.200Z,23.00
2023-04-06T05:16:44.193Z,23.00
2023-04-06T05:17:44.325Z,22.99
2023-04-06T05:18:44.223Z,22.99
2023-04-06T05:19:44.266Z,22.99
2023-04-06T05:20:44.320Z,22.99
2023-04-06T05:21:44.378Z,23.00
2023-04-06T05:22:44.388Z,23.00
2023-04-06T05:23:44.392Z,22.99
2023-04-06T05:24:44.459Z,22.99
2023-04-06T05:25:44.522Z,22.99
2023-04-06T05:26:44.638Z,23.00
2023-04-06T05:27:44.605Z,22.99
2023-04-06T05:28:44.576Z,23.00
2023-04-06T05:29:44.713Z,23.00
2023-04-06T05:30:44.710Z,23.01
2023-04-06T05:31:44.738Z,23.00
2023-04-06T05:32:44.900Z,23.01
2023-04-06T05:33:44.791Z,23.02
2023-04-06T05:34:44.777Z,23.01
2023-04-06T05:35:44.876Z,23.01
2023-04-06T05:36:44.870Z,23.02
2023-04-06T05:37:44.924Z,23.02
2023-04-06T05:38:44.919Z,23.03
2023-04-06T05:39:44.929Z,23.03
2023-04-06T05:40:45.050Z,23.03
2023-04-06T05:41:45.017Z,23.03
2023-04-06T05:42:45.039Z,23.02
2023-04-06T05:43:45.133Z,23.03
2023-04-06T05:44:45.099Z,23.04
2023-04-06T05:45:45.113Z,23.03
2023-04-06T05:46:45.168Z,23.04
2023-04-06T05:47:45.195Z,23.04
2023-04-06T05:48:45.236Z,23.04
2023-04-06T05:49:45.232Z,23.05
2023-04-06T05:50:45.254Z,23.05
2023-04-06T05:51:45.246Z,23.05
2023-04-06T05:52:45.313Z,23.05
2023-04-06T05:53:45.378Z,23.05
2023-04-06T05:54:45.343Z,23.06
2023-04-06T05:55:45.422Z,23.06
2023-04-06T05:56:45.506Z,23.06
2023-04-06T05:57:45.494Z,23.07
2023-04-06T05:58:45.501Z,23.08
2023-04-06T05:59:45.543Z,23.07
2023-04-06T06:00:45.582Z,23.08
2023-04-06T06:01:45.594Z,23.08
2023-04-06T06:02:45.658Z,23.09
2023-04-06T06:03:45.652Z,23.09
2023-04-06T06:04:45.669Z,23.09
2023-04-06T06:05:45.694Z,23.10
2023-04-06T06:06:45.701Z,23.10
2023-04-06T06:07:45.731Z,23.10
2023-04-06T06:08:45.779Z,23.11
2023-04-06T06:09:45.827Z,23.11
2023-04-06T06:10:45.832Z,23.11
2023-04-06T06:11:45.831Z,23.12
2023-04-06T06:12:45.871Z,23.12
2023-04-06T06:13:45.924Z,23.13
2023-04-06T06:14:45.968Z,23.13
2023-04-06T06:15:45.962Z,23.13
2023-04-06T06:16:46.036Z,23.14
2023-04-06T06:17:46.006Z,23.14
2023-04-06T06:18:46.049Z,23.15
2023-04-06T06:19:46.085Z,23.17
2023-04-06T06:20:46.091Z,23.16
2023-04-06T06:21:46.099Z,23.16
2023-04-06T06:22:46.174Z,23.17
2023-04-06T06:23:46.195Z,23.18
2023-04-06T06:24:46.213Z,23.18
2023-04-06T06:25:46.253Z,23.19
2023-04-06T06:26:46.276Z,23.20
2023-04-06T06:27:46.284Z,23.20
2023-04-06T06:28:46.316Z,23.20
2023-04-06T06:29:46.360Z,23.21
2023-04-06T06:30:46.397Z,23.22
2023-04-06T06:31:46.459Z,23.23
2023-04-06T06:32:46.529Z,23.23
2023-04-06T06:33:46.481Z,23.24
2023-04-06T06:34:46.541Z,23.25
2023-04-06T06:35:46.696Z,23.26
2023-04-06T06:36:48.128Z,23.27
2023-04-06T06:37:46.638Z,23.27
2023-04-06T06:38:46.680Z,23.28
2023-04-06T06:39:46.701Z,23.29
2023-04-06T06:40:46.750Z,23.30
2023-04-06T06:41:46.781Z,23.31
2023-04-06T06:42:46.804Z,23.31
2023-04-06T06:43:46.815Z,23.31
2023-04-06T06:44:46.878Z,23.32
2023-04-06T06:45:46.937Z,23.33
2023-04-06T06:46:46.966Z,23.33
2023-04-06T06:47:46.993Z,23.34
2023-04-06T06:48:46.983Z,23.34
2023-04-06T06:49:47.108Z,23.35
2023-04-06T06:50:47.035Z,23.35
2023-04-06T06:51:47.122Z,23.35
2023-04-06T06:52:47.145Z,23.35
2023-04-06T06:53:47.158Z,23.36
2023-04-06T06:54:47.198Z,23.37
2023-04-06T06:55:47.205Z,23.37
2023-04-06T06:56:47.276Z,23.37
2023-04-06T06:57:47.271Z,23.37
2023-04-06T06:58:47.384Z,23.38
2023-04-06T06:59:47.385Z,23.37
2023-04-06T07:00:47.470Z,23.38
2023-04-06T07:01:47.432Z,23.38
2023-04-06T07:02:47.612Z,23.38
2023-04-06T07:03:47.543Z,23.39
2023-04-06T07:04:47.656Z,23.40
2023-04-06T07:05:47.563Z,23.40
2023-04-06T07:06:47.656Z,23.40
2023-04-06T07:07:47.787Z,23.40
2023-04-06T07:08:47.595Z,23.40
2023-04-06T07:09:47.643Z,23.40
2023-04-06T07:10:47.638Z,23.41
2023-04-06T07:11:47.649Z,23.41
2023-04-06T07:12:47.650Z,23.41
2023-04-06T07:13:47.690Z,23.41
2023-04-06T07:14:47.901Z,23.41
2023-04-06T07:15:47.731Z,23.42
2023-04-06T07:16:47.827Z,23.42
2023-04-06T07:17:47.891Z,23.42
2023-04-06T07:18:47.812Z,23.42
2023-04-06T07:19:47.871Z,23.43
2023-04-06T07:20:47.934Z,23.43
2023-04-06T07:21:47.942Z,23.43
2023-04-06T07:22:47.962Z,23.43
2023-04-06T07:23:47.984Z,23.43
2023-04-06T07:24:47.999Z,23.44
2023-04-06T07:25:48.017Z,23.44
2023-04-06T07:26:48.001Z,23.45
2023-04-06T07:27:48.033Z,23.45
2023-04-06T07:28:48.081Z,23.45
2023-04-06T07:29:48.101Z,23.45
2023-04-06T07:30:48.171Z,23.45
2023-04-06T07:31:48.245Z,23.45
2023-04-06T07:32:48.249Z,23.47
2023-04-06T07:33:48.223Z,23.46
2023-04-06T07:34:48.261Z,23.47
2023-04-06T07:35:48.273Z,23.46
2023-04-06T07:36:48.279Z,23.47
2023-04-06T07:37:48.278Z,23.47
2023-04-06T07:38:48.368Z,23.47
2023-04-06T07:39:48.379Z,23.47
2023-04-06T07:40:48.380Z,23.47
2023-04-06T07:41:48.376Z,23.48
2023-04-06T07:42:48.440Z,23.49
2023-04-06T07:43:48.467Z,23.49
2023-04-06T07:44:48.439Z,23.49
2023-04-06T07:45:48.525Z,23.49
2023-04-06T07:46:48.528Z,23.49
2023-04-06T07:47:48.581Z,23.49
2023-04-06T07:48:48.634Z,23.49
2023-04-06T07:49:48.640Z,23.50
2023-04-06T07:50:48.636Z,23.50
2023-04-06T07:51:48.650Z,23.50
2023-04-06T07:52:48.694Z,23.50
2023-04-06T07:53:48.713Z,23.51
2023-04-06T07:54:48.771Z,23.51
2023-04-06T07:55:48.764Z,23.51
2023-04-06T07:56:48.834Z,23.51
2023-04-06T07:57:48.849Z,23.52
2023-04-06T07:58:49.049Z,23.52
2023-04-06T07:59:48.916Z,23.53
2023-04-06T08:00:48.924Z,23.53
2023-04-06T08:01:48.970Z,23.53
2023-04-06T08:02:49.207Z,23.54
2023-04-06T08:03:49.150Z,23.54
2023-04-06T08:04:49.060Z,23.53
2023-04-06T08:05:49.066Z,23.54
2023-04-06T08:06:49.067Z,23.55
2023-04-06T08:07:49.091Z,23.54
2023-04-06T08:08:49.119Z,23.55
2023-04-06T08:09:49.138Z,23.55
2023-04-06T08:10:49.169Z,23.55
2023-04-06T08:11:49.203Z,23.56
2023-04-06T08:12:49.206Z,23.56
2023-04-06T08:13:49.260Z,23.56
2023-04-06T08:14:49.270Z,23.56
2023-04-06T08:15:49.316Z,23.56
2023-04-06T08:16:49.336Z,23.57
2023-04-06T08:17:49.403Z,23.57
2023-04-06T08:18:49.344Z,23.57
2023-04-06T08:19:49.379Z,23.57
2023-04-06T08:20:49.434Z,23.58
2023-04-06T08:21:49.428Z,23.58
2023-04-06T08:22:51.075Z,23.58
2023-04-06T08:23:49.477Z,23.59
2023-04-06T08:24:49.431Z,23.59
2023-04-06T08:25:49.497Z,23.60
2023-04-06T08:26:49.462Z,23.60
2023-04-06T08:27:49.452Z,23.60
2023-04-06T08:28:49.406Z,23.61
2023-04-06T08:29:49.472Z,23.61
2023-04-06T08:30:49.464Z,23.62
2023-04-06T08:31:49.409Z,23.62
2023-04-06T08:32:49.471Z,23.62
2023-04-06T08:33:49.406Z,23.62
2023-04-06T08:34:49.384Z,23.63
2023-04-06T08:35:49.397Z,23.63
2023-04-06T08:36:49.390Z,23.62
2023-04-06T08:37:49.377Z,23.62
2023-04-06T08:38:49.380Z,23.63
2023-04-06T08:39:49.357Z,23.63
2023-04-06T08:40:49.320Z,23.63
2023-04-06T08:41:49.345Z,23.63
2023-04-06T08:42:49.353Z,23.63
2023-04-06T08:43:49.318Z,23.63
2023-04-06T08:44:49.340Z,23.64
2023-04-06T08:45:49.288Z,23.64
2023-04-06T08:46:49.512Z,23.64
2023-04-06T08:47:49.383Z,23.64
2023-04-06T08:48:49.272Z,23.64
2023-04-06T08:49:49.280Z,23.65
2023-04-06T08:50:49.309Z,23.65
2023-04-06T08:51:49.285Z,23.64
2023-04-06T08:52:49.281Z,23.65
2023-04-06T08:53:49.260Z,23.65
2023-04-06T08:54:49.254Z,23.64
2023-04-06T08:55:49.247Z,23.65
2023-04-06T08:56:49.231Z,23.65
2023-04-06T08:57:49.252Z,23.65
2023-04-06T08:58:49.240Z,23.66
2023-04-06T08:59:49.235Z,23.66
2023-04-06T09:00:49.229Z,23.66
2023-04-06T09:01:49.281Z,23.66
2023-04-06T09:02:49.495Z,23.66
2023-04-06T09:03:49.267Z,23.66
2023-04-06T09:04:49.264Z,23.67
2023-04-06T09:05:49.157Z,23.66
2023-04-06T09:06:49.168Z,23.67
2023-04-06T09:07:49.171Z,23.67
2023-04-06T09:08:49.177Z,23.68
2023-04-06T09:09:49.170Z,23.68
2023-04-06T09:10:49.200Z,23.68
2023-04-06T09:11:49.143Z,23.67
2023-04-06T09:12:49.134Z,23.68
2023-04-06T09:13:49.151Z,23.68
2023-04-06T09:14:49.122Z,23.68
2023-04-06T09:15:49.163Z,23.69
2023-04-06T09:16:49.090Z,23.68
2023-04-06T09:17:49.216Z,23.68
2023-04-06T09:18:49.114Z,23.69
2023-04-06T09:19:49.103Z,23.69
2023-04-06T09:20:49.052Z,23.69
2023-04-06T09:21:49.077Z,23.70
2023-04-06T09:22:49.053Z,23.71
2023-04-06T09:23:49.107Z,23.70
2023-04-06T09:24:49.089Z,23.70
2023-04-06T09:25:49.894Z,23.70
2023-04-06T09:26:49.040Z,23.70
2023-04-06T09:27:49.057Z,23.70
2023-04-06T09:28:49.056Z,23.71
2023-04-06T09:29:49.074Z,23.71
2023-04-06T09:30:49.114Z,23.71
2023-04-06T09:31:49.200Z,23.71
2023-04-06T09:32:49.207Z,23.71
2023-04-06T09:33:49.193Z,23.71
2023-04-06T09:34:50.676Z,23.71
2023-04-06T09:35:49.246Z,23.72
2023-04-06T09:36:49.274Z,23.72
2023-04-06T09:37:49.329Z,23.72
2023-04-06T09:38:49.319Z,23.72
2023-04-06T09:39:49.402Z,23.73
2023-04-06T09:41:00.179Z,23.73
2023-04-06T09:41:50.439Z,23.73
2023-04-06T09:42:49.432Z,23.73
2023-04-06T09:43:49.359Z,23.73
2023-04-06T09:44:49.350Z,23.73
2023-04-06T09:45:49.386Z,23.73
2023-04-06T09:47:49.525Z,23.74
2023-04-06T09:48:49.363Z,23.74
2023-04-06T09:49:49.369Z,23.74
2023-04-06T09:50:49.355Z,23.74
2023-04-06T09:51:49.422Z,23.74
2023-04-06T09:52:49.319Z,23.75
2023-04-06T09:53:49.329Z,23.74
2023-04-06T09:54:49.335Z,23.75
2023-04-06T09:55:49.304Z,23.75
2023-04-06T09:56:49.278Z,23.76
2023-04-06T09:57:49.319Z,23.76
2023-04-06T09:58:49.504Z,23.76
2023-04-06T09:59:49.330Z,23.77
2023-04-06T10:00:49.912Z,23.76
2023-04-06T10:01:49.266Z,23.77
2023-04-06T10:02:49.448Z,23.77
2023-04-06T10:03:49.329Z,23.77
2023-04-06T10:04:49.228Z,23.77
2023-04-06T10:05:49.256Z,23.77
2023-04-06T10:06:49.246Z,23.76
2023-04-06T10:07:59.623Z,23.77
2023-04-06T10:08:50.222Z,23.77
2023-04-06T10:09:49.187Z,23.77
2023-04-06T10:10:49.187Z,23.77
2023-04-06T10:11:49.180Z,23.77
2023-04-06T10:12:49.174Z,23.77
2023-04-06T10:13:49.167Z,23.77
2023-04-06T10:14:49.157Z,23.78
2023-04-06T10:15:49.217Z,23.77
2023-04-06T10:16:49.216Z,23.78
2023-04-06T10:17:49.131Z,23.77
2023-04-06T10:18:49.149Z,23.78
2023-04-06T10:19:49.126Z,23.78
2023-04-06T10:20:49.091Z,23.77
2023-04-06T10:21:49.113Z,23.77
2023-04-06T10:22:49.097Z,23.77
2023-04-06T10:23:49.080Z,23.77
2023-04-06T10:24:49.067Z,23.76
2023-04-06T10:25:49.105Z,23.78
2023-04-06T10:26:49.085Z,23.78
2023-04-06T10:27:49.128Z,23.77
2023-04-06T10:28:49.134Z,23.77
2023-04-06T10:29:49.149Z,23.78
2023-04-06T10:30:49.172Z,23.78
2023-04-06T10:31:49.204Z,23.78
2023-04-06T10:32:49.233Z,23.79
2023-04-06T10:33:49.190Z,23.79
2023-04-06T10:34:49.193Z,23.79
2023-04-06T10:35:49.250Z,23.80
2023-04-06T10:36:49.249Z,23.79
2023-04-06T10:37:49.257Z,23.78
2023-04-06T10:38:49.304Z,23.79
2023-04-06T10:39:49.285Z,23.79
2023-04-06T10:40:49.284Z,23.79
2023-04-06T10:41:49.341Z,23.80
2023-04-06T10:42:49.366Z,23.80
2023-04-06T10:43:49.366Z,23.79
2023-04-06T10:44:49.369Z,23.79
2023-04-06T10:45:49.416Z,23.80
2023-04-06T10:46:49.426Z,23.80
2023-04-06T10:47:49.465Z,23.80
2023-04-06T10:48:49.470Z,23.80
2023-04-06T10:49:49.493Z,23.81
2023-04-06T10:50:49.490Z,23.80
2023-04-06T10:51:49.518Z,23.81
2023-04-06T10:52:49.537Z,23.80
2023-04-06T10:53:49.560Z,23.80
2023-04-06T10:54:50.561Z,23.81
2023-04-06T10:55:49.588Z,23.81
2023-04-06T10:56:49.595Z,23.81
2023-04-06T10:57:49.632Z,23.81
2023-04-06T10:58:49.704Z,23.81
2023-04-06T10:59:49.622Z,23.81
2023-04-06T11:00:51.180Z,23.81
2023-04-06T11:01:49.729Z,23.81
2023-04-06T11:02:49.769Z,23.82
2023-04-06T11:03:49.767Z,23.81
2023-04-06T11:04:49.751Z,23.82
2023-04-06T11:05:49.734Z,23.81
2023-04-06T11:06:49.773Z,23.82
2023-04-06T11:07:49.768Z,23.82
2023-04-06T11:08:49.817Z,23.82
2023-04-06T11:10:04.566Z,23.82
2023-04-06T11:10:50.822Z,23.82
2023-04-06T11:11:49.807Z,23.82
2023-04-06T11:12:49.814Z,23.83
2023-04-06T11:13:49.816Z,23.83
2023-04-06T11:14:49.818Z,23.83
2023-04-06T11:15:49.759Z,23.83
2023-04-06T11:16:49.807Z,23.83
2023-04-06T11:17:49.768Z,23.83
2023-04-06T11:18:49.774Z,23.84
2023-04-06T11:19:49.744Z,23.83
2023-04-06T11:20:49.763Z,23.83
2023-04-06T11:21:49.754Z,23.84
2023-04-06T11:22:49.723Z,23.83
2023-04-06T11:23:49.716Z,23.83
2023-04-06T11:24:49.727Z,23.83
2023-04-06T11:25:49.678Z,23.84
2023-04-06T11:26:49.791Z,23.84
2023-04-06T11:27:49.741Z,23.84
2023-04-06T11:28:49.751Z,23.84
2023-04-06T11:29:49.745Z,23.85
2023-04-06T11:30:49.803Z,23.85
2023-04-06T11:31:49.772Z,23.85
2023-04-06T11:32:49.843Z,23.85
2023-04-06T11:33:49.801Z,23.85
2023-04-06T11:34:49.850Z,23.86
2023-04-06T11:35:49.941Z,23.86
2023-04-06T11:36:49.850Z,23.85
2023-04-06T11:37:49.909Z,23.85
2023-04-06T11:38:49.911Z,23.86
2023-04-06T11:39:49.915Z,23.86
2023-04-06T11:40:49.957Z,23.87
2023-04-06T11:41:50.006Z,23.86
2023-04-06T11:42:50.040Z,23.86
2023-04-06T11:43:50.026Z,23.87
2023-04-06T11:44:50.053Z,23.87
2023-04-06T11:45:50.060Z,23.87
2023-04-06T11:46:50.183Z,23.88
2023-04-06T11:47:50.163Z,23.88
2023-04-06T11:48:50.213Z,23.88
2023-04-06T11:49:50.165Z,23.87
2023-04-06T11:50:50.238Z,23.88
2023-04-06T11:51:50.271Z,23.89
2023-04-06T11:52:50.267Z,23.88
2023-04-06T11:53:50.369Z,23.88
2023-04-06T11:54:50.347Z,23.89
2023-04-06T11:55:50.309Z,23.89
2023-04-06T11:56:50.398Z,23.90
2023-04-06T11:57:50.403Z,23.90
2023-04-06T11:58:50.493Z,23.90
2023-04-06T11:59:50.437Z,23.90
2023-04-06T12:00:50.526Z,23.90
2023-04-06T12:01:51.342Z,23.90
2023-04-06T12:02:50.649Z,23.90
2023-04-06T12:03:50.733Z,23.90
2023-04-06T12:04:50.598Z,23.90
2023-04-06T12:05:50.604Z,23.90
2023-04-06T12:06:50.597Z,23.90
2023-04-06T12:07:50.640Z,23.90
2023-04-06T12:08:50.685Z,23.91
2023-04-06T12:09:50.702Z,23.91
2023-04-06T12:10:50.744Z,23.90
2023-04-06T12:11:50.942Z,23.91
2023-04-06T12:12:50.726Z,23.91
2023-04-06T12:13:50.772Z,23.91
2023-04-06T12:14:50.822Z,23.91
2023-04-06T12:15:50.911Z,23.91
2023-04-06T12:16:50.899Z,23.91
2023-04-06T12:17:51.008Z,23.91
2023-04-06T12:18:50.950Z,23.91
2023-04-06T12:19:50.949Z,23.91
2023-04-06T12:20:51.025Z,23.92
2023-04-06T12:21:51.035Z,23.92
2023-04-06T12:22:51.040Z,23.92
2023-04-06T12:23:51.103Z,23.92
2023-04-06T12:24:51.136Z,23.92
2023-04-06T12:25:51.166Z,23.92
2023-04-06T12:26:54.084Z,23.92
2023-04-06T12:27:52.196Z,23.92
2023-04-06T12:28:51.194Z,23.93
2023-04-06T12:29:51.243Z,23.92
2023-04-06T12:30:51.198Z,23.94
2023-04-06T12:31:51.160Z,23.94
2023-04-06T12:32:51.461Z,23.93
2023-04-06T12:33:51.180Z,23.94
2023-04-06T12:34:51.140Z,23.93
2023-04-06T12:35:51.131Z,23.94
2023-04-06T12:36:51.219Z,23.94
2023-04-06T12:37:51.125Z,23.94
2023-04-06T12:38:51.140Z,23.95
2023-04-06T12:39:51.082Z,23.94
2023-04-06T12:40:51.094Z,23.94
2023-04-06T12:41:51.134Z,23.95
2023-04-06T12:42:51.219Z,23.95
2023-04-06T12:43:51.204Z,23.95
2023-04-06T12:44:51.239Z,23.95
2023-04-06T12:45:51.295Z,23.95
2023-04-06T12:46:51.330Z,23.95
2023-04-06T12:47:51.379Z,23.95
2023-04-06T12:48:51.425Z,23.95
2023-04-06T12:49:51.401Z,23.96
2023-04-06T12:50:51.481Z,23.96
2023-04-06T12:51:51.491Z,23.96
2023-04-06T12:52:51.554Z,23.95
2023-04-06T12:53:51.575Z,23.96